createdAt,value
2018-06-25T00:00:52.704Z,16.69
2018-06-25T00:01:52.702Z,16.73
2018-06-25T00:02:52.696Z,16.63
2018-06-25T00:03:52.693Z,16.63
2018-06-25T00:04:52.690Z,16.69
2018-06-25T00:05:52.689Z,16.57
2018-06-25T00:06:52.692Z,16.65
2018-06-25T00:07:52.687Z,16.65
2018-06-25T00:08:52.687Z,16.59
2018-06-25T00:09:52.685Z,16.59
2018-06-25T00:10:52.676Z,16.62
2018-06-25T00:11:52.673Z,16.59
2018-06-25T00:12:52.676Z,16.62
2018-06-25T00:13:52.675Z,16.67
2018-06-25T00:14:52.671Z,16.63
2018-06-25T00:15:52.663Z,16.60
2018-06-25T00:16:52.662Z,16.65
2018-06-25T00:17:52.658Z,16.60
2018-06-25T00:18:52.661Z,16.52
2018-06-25T00:19:52.658Z,16.55
2018-06-25T00:20:52.655Z,16.59
2018-06-25T00:21:52.653Z,16.52
2018-06-25T00:22:52.647Z,16.55
2018-06-25T00:23:52.643Z,16.50
2018-06-25T00:24:52.643Z,16.48
2018-06-25T00:25:52.640Z,16.51
2018-06-25T00:26:52.642Z,16.50
2018-06-25T00:27:52.638Z,16.51
2018-06-25T00:28:52.632Z,16.45
2018-06-25T00:29:52.630Z,16.45
2018-06-25T00:30:52.631Z,16.51
2018-06-25T00:31:52.628Z,16.55
2018-06-25T00:32:52.625Z,16.42
2018-06-25T00:33:52.626Z,16.48
2018-06-25T00:34:52.617Z,16.50
2018-06-25T00:35:52.612Z,16.51
2018-06-25T00:36:52.611Z,16.50
2018-06-25T00:37:52.608Z,16.45
2018-06-25T00:38:52.610Z,16.42
2018-06-25T00:39:52.608Z,16.50
2018-06-25T00:40:52.603Z,16.48
2018-06-25T00:41:52.602Z,16.45
2018-06-25T00:42:52.595Z,16.42
2018-06-25T00:43:52.594Z,16.48
2018-06-25T00:44:52.593Z,16.51
2018-06-25T00:45:52.594Z,16.44
2018-06-25T00:46:52.590Z,16.48
2018-06-25T00:47:52.583Z,16.50
2018-06-25T00:48:52.581Z,16.48
2018-06-25T00:49:52.580Z,16.47
2018-06-25T00:50:52.594Z,16.45
2018-06-25T00:51:52.576Z,16.48
2018-06-25T00:52:52.574Z,16.40
2018-06-25T00:53:52.571Z,16.50
2018-06-25T00:54:52.563Z,16.44
2018-06-25T00:55:52.561Z,16.40
2018-06-25T00:56:52.557Z,16.47
2018-06-25T00:57:52.555Z,16.42
2018-06-25T00:58:52.558Z,16.37
2018-06-25T00:59:52.556Z,16.37
2018-06-25T01:00:52.551Z,16.36
2018-06-25T01:01:52.545Z,16.44
2018-06-25T01:02:52.545Z,16.37
2018-06-25T01:03:52.542Z,16.44
2018-06-25T01:04:52.541Z,16.37
2018-06-25T01:05:52.555Z,16.37
2018-06-25T01:06:52.530Z,16.37
2018-06-25T01:07:52.527Z,16.42
2018-06-25T01:08:52.530Z,16.37
2018-06-25T01:09:52.522Z,16.42
2018-06-25T01:10:52.526Z,16.42
2018-06-25T01:11:52.522Z,16.40
2018-06-25T01:12:52.518Z,16.42
2018-06-25T01:13:52.516Z,16.34
2018-06-25T01:14:52.509Z,16.41
2018-06-25T01:15:52.505Z,16.45
2018-06-25T01:16:52.507Z,16.40
2018-06-25T01:17:52.505Z,16.41
2018-06-25T01:18:52.500Z,16.37
2018-06-25T01:19:52.495Z,16.37
2018-06-25T01:20:52.492Z,16.34
2018-06-25T01:21:52.490Z,16.41
2018-06-25T01:22:52.493Z,16.37
2018-06-25T01:23:52.488Z,16.36
2018-06-25T01:24:52.487Z,16.37
2018-06-25T01:25:52.485Z,16.37
2018-06-25T01:26:52.478Z,16.34
2018-06-25T01:27:52.473Z,16.34
2018-06-25T01:28:52.472Z,16.36
2018-06-25T01:29:52.469Z,16.37
2018-06-25T01:30:52.470Z,16.36
2018-06-25T01:31:52.467Z,16.40
2018-06-25T01:32:52.460Z,16.36
2018-06-25T01:33:52.457Z,16.33
2018-06-25T01:34:52.461Z,16.33
2018-06-25T01:35:52.456Z,16.34
2018-06-25T01:36:52.455Z,16.22
2018-06-25T01:37:52.451Z,16.30
2018-06-25T01:38:52.444Z,16.26
2018-06-25T01:39:52.440Z,16.37
2018-06-25T01:40:52.438Z,16.34
2018-06-25T01:41:52.435Z,16.40
2018-06-25T01:42:52.438Z,16.30
2018-06-25T01:43:52.434Z,16.26
2018-06-25T01:44:52.432Z,16.27
2018-06-25T01:45:52.428Z,16.22
2018-06-25T01:46:52.421Z,16.25
2018-06-25T01:47:52.418Z,16.22
2018-06-25T01:48:52.420Z,16.26
2018-06-25T01:49:52.419Z,16.25
2018-06-25T01:50:52.410Z,16.18
2018-06-25T01:51:52.406Z,16.18
2018-06-25T01:52:52.403Z,16.23
2018-06-25T01:53:52.402Z,16.23
2018-06-25T01:54:52.403Z,16.16
2018-06-25T01:55:52.399Z,16.18
2018-06-25T01:56:52.398Z,16.11
2018-06-25T01:57:52.393Z,16.14
2018-06-25T01:58:52.386Z,16.16
2018-06-25T01:59:52.384Z,16.16
2018-06-25T02:00:52.381Z,16.13
2018-06-25T02:01:52.378Z,16.18
2018-06-25T02:02:52.381Z,16.16
2018-06-25T02:03:52.375Z,16.18
2018-06-25T02:04:52.368Z,16.11
2018-06-25T02:05:52.366Z,16.13
2018-06-25T02:06:52.367Z,16.25
2018-06-25T02:07:52.363Z,16.22
2018-06-25T02:08:52.362Z,16.14
2018-06-25T02:09:52.360Z,16.13
2018-06-25T02:10:52.352Z,16.16
2018-06-25T02:11:52.348Z,16.11
2018-06-25T02:12:52.345Z,16.13
2018-06-25T02:13:52.343Z,16.14
2018-06-25T02:14:52.344Z,16.14
2018-06-25T02:15:52.341Z,16.22
2018-06-25T02:16:52.339Z,16.17
2018-06-25T02:17:52.335Z,16.25
2018-06-25T02:18:52.329Z,16.30
2018-06-25T02:19:52.324Z,16.34
2018-06-25T02:20:52.326Z,16.29
2018-06-25T02:21:52.324Z,16.29
2018-06-25T02:22:52.319Z,16.26
2018-06-25T02:23:52.314Z,16.30
2018-06-25T02:24:52.311Z,16.34
2018-06-25T02:25:52.309Z,16.29
2018-06-25T02:26:52.312Z,16.26
2018-06-25T02:27:52.312Z,16.27
2018-06-25T02:28:52.307Z,16.45
2018-06-25T02:29:52.303Z,16.30
2018-06-25T02:30:52.295Z,16.40
2018-06-25T02:31:52.292Z,16.33
2018-06-25T02:32:52.289Z,16.25
2018-06-25T02:33:52.289Z,16.33
2018-06-25T02:34:52.290Z,16.27
2018-06-25T02:35:52.291Z,16.22
2018-06-25T02:36:52.278Z,16.22
2018-06-25T02:37:52.275Z,16.18
2018-06-25T02:38:52.277Z,16.17
2018-06-25T02:39:52.274Z,16.14
2018-06-25T02:40:52.276Z,16.14
2018-06-25T02:41:52.269Z,16.11
2018-06-25T02:42:52.260Z,16.10
2018-06-25T02:43:52.257Z,16.07
2018-06-25T02:44:52.254Z,16.10
2018-06-25T02:45:52.253Z,16.11
2018-06-25T02:46:52.259Z,16.01
2018-06-25T02:47:52.249Z,16.03
2018-06-25T02:48:52.247Z,15.98
2018-06-25T02:49:52.248Z,16.08
2018-06-25T02:50:52.238Z,16.01
2018-06-25T02:51:52.233Z,16.08
2018-06-25T02:52:52.235Z,16.16
2018-06-25T02:53:52.234Z,16.11
2018-06-25T02:54:52.225Z,16.06
2018-06-25T02:55:52.223Z,16.01
2018-06-25T02:56:52.219Z,16.03
2018-06-25T02:57:52.216Z,16.03
2018-06-25T02:58:52.218Z,16.01
2018-06-25T02:59:52.217Z,15.93
2018-06-25T03:00:52.212Z,16.04
2018-06-25T03:01:52.209Z,15.95
2018-06-25T03:02:52.203Z,16.03
2018-06-25T03:03:52.199Z,15.93
2018-06-25T03:04:52.195Z,15.93
2018-06-25T03:05:52.192Z,15.93
2018-06-25T03:06:52.209Z,15.98
2018-06-25T03:07:52.191Z,15.92
2018-06-25T03:08:52.183Z,15.98
2018-06-25T03:09:52.180Z,15.96
2018-06-25T03:10:52.181Z,15.91
2018-06-25T03:11:52.178Z,15.84
2018-06-25T03:12:52.175Z,15.91
2018-06-25T03:13:52.173Z,15.98
2018-06-25T03:14:52.165Z,16.03
2018-06-25T03:15:52.160Z,15.93
2018-06-25T03:16:52.158Z,15.99
2018-06-25T03:17:52.155Z,16.01
2018-06-25T03:18:52.163Z,16.04
2018-06-25T03:19:52.154Z,16.04
2018-06-25T03:20:52.150Z,16.01
2018-06-25T03:21:52.149Z,16.04
2018-06-25T03:22:52.140Z,16.06
2018-06-25T03:23:52.137Z,15.92
2018-06-25T03:24:52.139Z,15.92
2018-06-25T03:25:52.136Z,15.89
2018-06-25T03:26:52.128Z,15.96
2018-06-25T03:27:52.124Z,15.98
2018-06-25T03:28:52.121Z,15.98
2018-06-25T03:29:52.119Z,15.96
2018-06-25T03:30:52.120Z,16.06
2018-06-25T03:31:52.117Z,16.01
2018-06-25T03:32:52.114Z,16.03
2018-06-25T03:33:52.111Z,16.06
2018-06-25T03:34:52.104Z,16.04
2018-06-25T03:35:52.100Z,16.08
2018-06-25T03:36:52.098Z,16.04
2018-06-25T03:37:52.095Z,16.01
2018-06-25T03:38:52.099Z,16.04
2018-06-25T03:39:52.094Z,15.99
2018-06-25T03:40:52.090Z,16.06
2018-06-25T03:41:52.083Z,16.07
2018-06-25T03:42:52.086Z,16.06
2018-06-25T03:43:52.082Z,16.06
2018-06-25T03:44:52.081Z,16.08
2018-06-25T03:45:52.075Z,16.07
2018-06-25T03:46:52.068Z,16.10
2018-06-25T03:47:52.064Z,16.10
2018-06-25T03:48:52.077Z,16.10
2018-06-25T03:49:52.060Z,16.13
2018-06-25T03:50:52.061Z,16.13
2018-06-25T03:51:52.057Z,16.10
2018-06-25T03:52:52.054Z,16.04
2018-06-25T03:53:52.050Z,16.03
2018-06-25T03:54:52.044Z,16.06
2018-06-25T03:55:52.040Z,16.17
2018-06-25T03:56:52.042Z,16.08
2018-06-25T03:57:52.039Z,16.08
2018-06-25T03:58:52.032Z,16.07
2018-06-25T03:59:52.028Z,16.11
2018-06-25T04:00:52.026Z,16.10
2018-06-25T04:01:52.025Z,16.16
2018-06-25T04:02:52.025Z,16.11
2018-06-25T04:03:52.021Z,16.07
2018-06-25T04:04:52.018Z,16.07
2018-06-25T04:05:52.019Z,16.07
2018-06-25T04:06:52.008Z,16.10
2018-06-25T04:07:52.005Z,16.17
2018-06-25T04:08:52.001Z,16.17
2018-06-25T04:09:52.002Z,16.11
2018-06-25T04:10:52.001Z,16.22
2018-06-25T04:11:51.996Z,16.11
2018-06-25T04:12:51.989Z,16.14
2018-06-25T04:13:51.987Z,16.13
2018-06-25T04:14:51.988Z,16.10
2018-06-25T04:15:51.985Z,16.18
2018-06-25T04:16:51.984Z,16.27
2018-06-25T04:17:51.983Z,16.22
2018-06-25T04:18:51.972Z,16.29
2018-06-25T04:19:51.975Z,16.22
2018-06-25T04:20:51.967Z,16.18
2018-06-25T04:21:51.963Z,16.30
2018-06-25T04:22:51.966Z,16.26
2018-06-25T04:23:51.963Z,16.23
2018-06-25T04:24:51.967Z,16.17
2018-06-25T04:25:51.956Z,16.25
2018-06-25T04:26:51.949Z,16.23
2018-06-25T04:27:51.945Z,16.22
2018-06-25T04:28:51.946Z,16.29
2018-06-25T04:29:51.944Z,16.32
2018-06-25T04:30:51.937Z,16.30
2018-06-25T04:31:51.936Z,16.32
2018-06-25T04:32:51.931Z,16.36
2018-06-25T04:33:51.928Z,16.34
2018-06-25T04:34:51.929Z,16.44
2018-06-25T04:35:51.929Z,16.37
2018-06-25T04:36:51.924Z,16.41
2018-06-25T04:37:51.922Z,16.52
2018-06-25T04:38:51.914Z,16.45
2018-06-25T04:39:51.910Z,16.48
2018-06-25T04:40:51.909Z,16.47
2018-06-25T04:41:51.905Z,16.54
2018-06-25T04:42:51.907Z,16.59
2018-06-25T04:43:51.903Z,16.52
2018-06-25T04:44:51.899Z,16.52
2018-06-25T04:45:51.894Z,16.60
2018-06-25T04:46:51.897Z,16.66
2018-06-25T04:47:51.893Z,16.63
2018-06-25T04:48:51.891Z,16.67
2018-06-25T04:49:51.888Z,16.63
2018-06-25T04:50:51.882Z,16.65
2018-06-25T04:51:51.877Z,16.73
2018-06-25T04:52:51.875Z,16.77
2018-06-25T04:53:51.873Z,16.77
2018-06-25T04:54:51.875Z,16.80
2018-06-25T04:55:51.875Z,16.73
2018-06-25T04:56:51.870Z,16.80
2018-06-25T04:57:51.869Z,16.82
2018-06-25T04:58:51.861Z,16.84
2018-06-25T04:59:51.857Z,16.78
2018-06-25T05:00:51.893Z,16.84
2018-06-25T05:01:51.859Z,16.82
2018-06-25T05:02:51.851Z,16.80
2018-06-25T05:03:51.847Z,16.82
2018-06-25T05:04:51.844Z,16.84
2018-06-25T05:05:51.843Z,16.77
2018-06-25T05:06:51.845Z,16.77
2018-06-25T05:07:51.841Z,16.95
2018-06-25T05:08:51.871Z,16.88
2018-06-25T05:09:51.838Z,16.91
2018-06-25T05:10:51.831Z,16.95
2018-06-25T05:11:51.827Z,16.95
2018-06-25T05:12:51.825Z,17.00
2018-06-25T05:13:51.824Z,17.03
2018-06-25T05:14:51.826Z,16.99
2018-06-25T05:15:51.825Z,17.06
2018-06-25T05:16:51.817Z,17.05
2018-06-25T05:17:51.814Z,17.06
2018-06-25T05:18:51.817Z,17.12
2018-06-25T05:19:51.813Z,17.14
2018-06-25T05:20:51.814Z,17.05
2018-06-25T05:21:51.809Z,17.10
2018-06-25T05:22:51.802Z,17.10
2018-06-25T05:23:51.800Z,17.07
2018-06-25T05:24:51.798Z,17.05
2018-06-25T05:25:51.797Z,17.05
2018-06-25T05:26:51.798Z,17.12
2018-06-25T05:27:51.798Z,17.06
2018-06-25T05:28:51.793Z,17.03
2018-06-25T05:29:51.792Z,17.07
2018-06-25T05:30:51.784Z,17.00
2018-06-25T05:31:51.783Z,17.05
2018-06-25T05:32:51.784Z,16.99
2018-06-25T05:33:51.782Z,16.98
2018-06-25T05:34:51.775Z,16.98
2018-06-25T05:35:51.772Z,16.84
2018-06-25T05:36:51.770Z,16.91
2018-06-25T05:37:51.769Z,16.92
2018-06-25T05:38:51.770Z,16.88
2018-06-25T05:39:51.769Z,16.90
2018-06-25T05:40:51.767Z,17.06
2018-06-25T05:41:51.763Z,16.91
2018-06-25T05:42:51.756Z,16.98
2018-06-25T05:43:51.753Z,17.00
2018-06-25T05:44:51.753Z,17.02
2018-06-25T05:45:51.750Z,17.00
2018-06-25T05:46:51.752Z,16.98
2018-06-25T05:47:51.749Z,16.88
2018-06-25T05:48:51.790Z,16.84
2018-06-25T05:49:51.745Z,16.92
2018-06-25T05:50:51.743Z,16.88
2018-06-25T05:51:51.741Z,16.95
2018-06-25T05:52:51.737Z,16.95
2018-06-25T05:53:51.737Z,16.88
2018-06-25T05:54:51.729Z,16.99
2018-06-25T05:55:51.729Z,16.98
2018-06-25T05:56:51.728Z,17.00
2018-06-25T05:57:51.727Z,16.91
2018-06-25T05:58:51.729Z,17.00
2018-06-25T05:59:51.717Z,17.00
2018-06-25T06:00:51.715Z,16.91
2018-06-25T06:01:51.713Z,17.05
2018-06-25T06:02:51.735Z,17.03
2018-06-25T06:03:51.711Z,17.03
2018-06-25T06:04:51.705Z,17.10
2018-06-25T06:05:51.704Z,17.05
2018-06-25T06:06:51.706Z,17.15
2018-06-25T06:07:51.703Z,17.14
2018-06-25T06:08:51.702Z,17.06
2018-06-25T06:09:51.701Z,17.05
2018-06-25T06:10:51.704Z,16.99
2018-06-25T06:11:51.690Z,17.05
2018-06-25T06:12:51.689Z,16.95
2018-06-25T06:13:51.689Z,17.03
2018-06-25T06:14:51.691Z,17.03
2018-06-25T06:15:51.687Z,17.02
2018-06-25T06:16:51.685Z,17.02
2018-06-25T06:17:51.681Z,17.02
2018-06-25T06:18:51.676Z,17.00
2018-06-25T06:19:51.671Z,17.02
2018-06-25T06:20:51.674Z,17.06
2018-06-25T06:21:51.692Z,17.10
2018-06-25T06:22:51.665Z,17.21
2018-06-25T06:23:51.662Z,17.18
2018-06-25T06:24:51.661Z,17.24
2018-06-25T06:25:51.659Z,17.21
2018-06-25T06:26:51.662Z,17.22
2018-06-25T06:27:51.659Z,17.38
2018-06-25T06:28:51.658Z,17.43
2018-06-25T06:29:51.657Z,17.49
2018-06-25T06:30:51.648Z,17.54
2018-06-25T06:31:51.645Z,17.63
2018-06-25T06:32:51.642Z,17.60
2018-06-25T06:33:51.642Z,17.76
2018-06-25T06:34:51.646Z,17.76
2018-06-25T06:35:51.641Z,17.71
2018-06-25T06:36:51.636Z,17.83
2018-06-25T06:37:51.634Z,17.79
2018-06-25T06:38:51.637Z,17.87
2018-06-25T06:39:51.694Z,17.89
2018-06-25T06:40:51.633Z,17.86
2018-06-25T06:41:51.633Z,17.92
2018-06-25T06:42:51.627Z,17.98
2018-06-25T06:43:51.623Z,17.98
2018-06-25T06:44:51.622Z,17.92
2018-06-25T06:45:51.620Z,17.80
2018-06-25T06:46:51.625Z,17.80
2018-06-25T06:47:51.624Z,17.79
2018-06-25T06:48:51.619Z,17.80
2018-06-25T06:49:51.618Z,17.86
2018-06-25T06:50:51.615Z,17.91
2018-06-25T06:51:51.610Z,17.95
2018-06-25T06:52:51.613Z,17.99
2018-06-25T06:53:51.613Z,18.05
2018-06-25T06:54:51.606Z,18.19
2018-06-25T06:55:51.604Z,18.20
2018-06-25T06:56:51.602Z,18.23
2018-06-25T06:57:51.672Z,18.21
2018-06-25T06:58:51.606Z,18.35
2018-06-25T06:59:51.607Z,18.34
2018-06-25T07:00:51.600Z,18.28
2018-06-25T07:01:51.603Z,18.38
2018-06-25T07:02:51.594Z,18.46
2018-06-25T07:03:51.591Z,18.35
2018-06-25T07:04:51.593Z,18.38
2018-06-25T07:05:51.590Z,18.41
2018-06-25T07:06:51.593Z,18.47
2018-06-25T07:07:51.592Z,18.46
2018-06-25T07:08:51.585Z,18.39
2018-06-25T07:09:51.585Z,18.19
2018-06-25T07:10:51.590Z,18.23
2018-06-25T07:11:51.588Z,18.23
2018-06-25T07:12:51.587Z,18.23
2018-06-25T07:13:51.584Z,18.23
2018-06-25T07:14:51.580Z,18.19
2018-06-25T07:15:51.576Z,18.01
2018-06-25T07:16:51.576Z,18.01
2018-06-25T07:17:51.578Z,17.95
2018-06-25T07:18:51.578Z,17.94
2018-06-25T07:19:51.577Z,17.81
2018-06-25T07:20:51.611Z,17.87
2018-06-25T07:21:51.576Z,17.95
2018-06-25T07:22:51.569Z,17.92
2018-06-25T07:23:51.567Z,18.02
2018-06-25T07:24:51.570Z,18.07
2018-06-25T07:25:51.569Z,18.07
2018-06-25T07:26:51.563Z,18.10
2018-06-25T07:27:51.560Z,18.25
2018-06-25T07:28:51.617Z,18.29
2018-06-25T07:29:51.588Z,18.36
2018-06-25T07:30:51.562Z,18.51
2018-06-25T07:31:51.560Z,18.49
2018-06-25T07:32:51.560Z,18.65
2018-06-25T07:33:51.558Z,18.65
2018-06-25T07:34:51.553Z,18.66
2018-06-25T07:35:51.551Z,18.50
2018-06-25T07:36:51.551Z,18.32
2018-06-25T07:37:51.550Z,18.35
2018-06-25T07:38:51.553Z,18.51
2018-06-25T07:39:51.553Z,18.32
2018-06-25T07:40:51.547Z,18.47
2018-06-25T07:41:51.545Z,18.47
2018-06-25T07:42:51.551Z,18.64
2018-06-25T07:43:51.547Z,18.60
2018-06-25T07:44:51.550Z,18.57
2018-06-25T07:45:51.545Z,18.47
2018-06-25T07:46:51.542Z,18.47
2018-06-25T07:47:51.541Z,18.50
2018-06-25T07:48:51.538Z,18.50
2018-06-25T07:49:51.538Z,18.51
2018-06-25T07:50:51.544Z,18.62
2018-06-25T07:51:51.539Z,18.62
2018-06-25T07:52:51.540Z,18.72
2018-06-25T07:53:51.538Z,18.79
2018-06-25T07:54:51.534Z,18.90
2018-06-25T07:55:51.531Z,18.90
2018-06-25T07:56:51.536Z,18.96
2018-06-25T07:57:51.536Z,18.94
2018-06-25T07:58:51.529Z,18.84
2018-06-25T07:59:51.529Z,18.86
2018-06-25T08:00:51.527Z,18.89
2018-06-25T08:01:51.527Z,18.86
2018-06-25T08:02:51.532Z,18.91
2018-06-25T08:03:51.529Z,19.01
2018-06-25T08:04:51.529Z,19.10
2018-06-25T08:05:51.530Z,19.16
2018-06-25T08:06:51.524Z,19.32
2018-06-25T08:07:51.523Z,19.49
2018-06-25T08:08:51.522Z,19.68
2018-06-25T08:09:51.583Z,19.97
2018-06-25T08:10:51.527Z,20.04
2018-06-25T08:11:51.525Z,20.10
2018-06-25T08:12:51.523Z,20.15
2018-06-25T08:13:51.522Z,20.38
2018-06-25T08:14:51.527Z,20.46
2018-06-25T08:15:51.525Z,20.53
2018-06-25T08:16:51.527Z,20.37
2018-06-25T08:17:51.527Z,20.22
2018-06-25T08:18:51.525Z,19.86
2018-06-25T08:19:51.522Z,19.92
2018-06-25T08:20:51.523Z,19.89
2018-06-25T08:21:51.523Z,19.95
2018-06-25T08:22:51.529Z,19.95
2018-06-25T08:23:51.529Z,19.86
2018-06-25T08:24:51.528Z,19.76
2018-06-25T08:25:51.529Z,19.80
2018-06-25T08:26:51.525Z,19.80
2018-06-25T08:27:51.523Z,19.68
2018-06-25T08:28:51.529Z,19.57
2018-06-25T08:29:51.588Z,19.42
2018-06-25T08:30:51.527Z,19.31
2018-06-25T08:31:51.525Z,19.34
2018-06-25T08:32:51.525Z,19.46
2018-06-25T08:33:51.691Z,19.75
2018-06-25T08:34:51.530Z,19.97
2018-06-25T08:35:51.530Z,20.25
2018-06-25T08:36:51.535Z,20.41
2018-06-25T08:37:51.538Z,20.31
2018-06-25T08:38:51.529Z,20.34
2018-06-25T08:39:51.527Z,20.31
2018-06-25T08:40:51.529Z,20.42
2018-06-25T08:41:51.529Z,20.58
2018-06-25T08:42:51.538Z,20.66
2018-06-25T08:43:51.532Z,21.18
2018-06-25T08:44:51.529Z,21.31
2018-06-25T08:45:51.586Z,21.40
2018-06-25T08:46:51.535Z,21.38
2018-06-25T08:47:51.537Z,21.43
2018-06-25T08:48:51.538Z,21.30
2018-06-25T08:49:51.541Z,21.00
2018-06-25T08:50:51.537Z,20.64
2018-06-25T08:51:51.578Z,20.51
2018-06-25T08:52:51.539Z,20.51
2018-06-25T08:53:51.540Z,20.50
2018-06-25T08:54:51.546Z,20.41
2018-06-25T08:55:51.547Z,20.38
2018-06-25T08:56:51.552Z,20.51
2018-06-25T08:57:51.550Z,20.53
2018-06-25T08:58:51.547Z,20.33
2018-06-25T08:59:51.547Z,20.33
2018-06-25T09:00:51.553Z,20.46
2018-06-25T09:01:51.555Z,20.34
2018-06-25T09:02:51.552Z,20.35
2018-06-25T09:03:51.553Z,20.19
2018-06-25T09:04:51.554Z,20.08
2018-06-25T09:05:51.555Z,20.04
2018-06-25T09:06:51.566Z,19.89
2018-06-25T09:07:51.562Z,19.97
2018-06-25T09:08:51.561Z,20.00
2018-06-25T09:09:51.615Z,19.78
2018-06-25T09:10:51.559Z,19.76
2018-06-25T09:11:51.559Z,20.17
2018-06-25T09:12:51.560Z,20.60
2018-06-25T09:13:51.561Z,21.06
2018-06-25T09:14:51.567Z,21.40
2018-06-25T09:15:51.567Z,21.93
2018-06-25T09:16:51.564Z,22.15
2018-06-25T09:17:51.566Z,22.17
2018-06-25T09:18:51.571Z,22.60
2018-06-25T09:19:51.573Z,23.00
2018-06-25T09:20:51.574Z,23.35
2018-06-25T09:21:51.577Z,23.39
2018-06-25T09:22:51.574Z,23.50
2018-06-25T09:23:51.576Z,22.88
2018-06-25T09:24:51.579Z,22.93
2018-06-25T09:25:51.581Z,22.96
2018-06-25T09:26:51.589Z,22.82
2018-06-25T09:27:51.600Z,22.78
2018-06-25T09:28:51.595Z,23.22
2018-06-25T09:29:51.599Z,23.39
2018-06-25T09:30:51.598Z,23.57
2018-06-25T09:31:51.600Z,23.03
2018-06-25T09:32:51.609Z,22.85
2018-06-25T09:33:51.613Z,22.67
2018-06-25T09:34:51.613Z,22.84
2018-06-25T09:35:51.614Z,22.97
2018-06-25T09:36:51.618Z,23.07
2018-06-25T09:37:51.621Z,22.97
2018-06-25T09:38:51.630Z,23.12
2018-06-25T09:39:51.633Z,22.54
2018-06-25T09:40:51.643Z,22.49
2018-06-25T09:41:51.640Z,22.72
2018-06-25T09:42:51.640Z,23.06
2018-06-25T09:43:51.642Z,23.14
2018-06-25T09:44:51.647Z,23.15
2018-06-25T09:45:51.664Z,23.11
2018-06-25T09:46:51.713Z,23.47
2018-06-25T09:47:51.661Z,23.44
2018-06-25T09:48:51.660Z,23.53
2018-06-25T09:49:51.663Z,23.44
2018-06-25T09:50:51.675Z,23.53
2018-06-25T09:51:51.675Z,23.52
2018-06-25T09:52:51.677Z,23.75
2018-06-25T09:53:51.681Z,23.57
2018-06-25T09:54:51.791Z,23.53
2018-06-25T09:55:51.684Z,23.44
2018-06-25T09:56:51.687Z,23.42
2018-06-25T09:57:51.691Z,23.50
2018-06-25T09:58:51.700Z,23.52
2018-06-25T09:59:51.703Z,23.37
2018-06-25T10:00:51.705Z,23.42
2018-06-25T10:01:51.709Z,23.19
2018-06-25T10:02:51.708Z,23.04
2018-06-25T10:03:51.711Z,22.89
2018-06-25T10:04:51.719Z,22.79
2018-06-25T10:05:51.723Z,22.85
2018-06-25T10:06:51.721Z,22.85
2018-06-25T10:07:51.723Z,23.00
2018-06-25T10:08:51.726Z,23.09
2018-06-25T10:09:51.759Z,23.18
2018-06-25T10:10:51.737Z,23.29
2018-06-25T10:11:51.739Z,23.15
2018-06-25T10:12:51.742Z,23.00
2018-06-25T10:13:51.745Z,23.18
2018-06-25T10:14:51.744Z,23.26
2018-06-25T10:15:51.745Z,23.29
2018-06-25T10:16:51.750Z,23.38
2018-06-25T10:17:51.752Z,23.44
2018-06-25T10:18:51.760Z,23.22
2018-06-25T10:19:51.763Z,22.97
2018-06-25T10:20:51.761Z,22.63
2018-06-25T10:21:51.764Z,22.63
2018-06-25T10:22:51.773Z,22.63
2018-06-25T10:23:51.775Z,22.56
2018-06-25T10:24:51.777Z,22.44
2018-06-25T10:25:51.779Z,22.48
2018-06-25T10:26:51.777Z,22.49
2018-06-25T10:27:51.779Z,22.61
2018-06-25T10:28:51.782Z,22.66
2018-06-25T10:29:51.786Z,22.64
2018-06-25T10:30:51.791Z,22.78
2018-06-25T10:31:51.792Z,22.96
2018-06-25T10:32:51.797Z,22.79
2018-06-25T10:33:51.799Z,23.09
2018-06-25T10:34:51.853Z,23.06
2018-06-25T10:35:51.799Z,23.18
2018-06-25T10:36:51.806Z,23.37
2018-06-25T10:37:51.811Z,23.56
2018-06-25T10:38:51.806Z,23.63
2018-06-25T10:39:51.808Z,23.71
2018-06-25T10:40:51.812Z,23.79
2018-06-25T10:41:51.812Z,23.63
2018-06-25T10:42:51.823Z,23.47
2018-06-25T10:43:51.826Z,23.50
2018-06-25T10:44:51.828Z,23.35
2018-06-25T10:45:51.829Z,23.16
2018-06-25T10:46:51.828Z,23.11
2018-06-25T10:47:51.830Z,22.96
2018-06-25T10:48:51.834Z,23.03
2018-06-25T10:49:51.837Z,23.14
2018-06-25T10:50:51.846Z,23.32
2018-06-25T10:51:51.847Z,23.39
2018-06-25T10:52:51.845Z,23.35
2018-06-25T10:53:51.849Z,23.52
2018-06-25T10:54:51.856Z,23.67
2018-06-25T10:55:51.858Z,23.64
2018-06-25T10:56:51.861Z,23.47
2018-06-25T10:57:51.864Z,23.42
2018-06-25T10:58:51.863Z,23.32
2018-06-25T10:59:51.990Z,23.31
2018-06-25T11:00:51.868Z,23.34
2018-06-25T11:01:51.873Z,23.35
2018-06-25T11:02:51.878Z,23.34
2018-06-25T11:03:51.881Z,23.23
2018-06-25T11:04:51.884Z,23.31
2018-06-25T11:05:51.894Z,23.14
2018-06-25T11:06:51.885Z,23.07
2018-06-25T11:07:51.891Z,23.06
2018-06-25T11:08:51.896Z,22.96
2018-06-25T11:09:51.898Z,22.63
2018-06-25T11:10:51.906Z,22.63
2018-06-25T11:11:51.898Z,22.38
2018-06-25T11:12:52.010Z,22.33
2018-06-25T11:13:51.903Z,22.33
2018-06-25T11:14:51.912Z,22.29
2018-06-25T11:15:51.911Z,22.30
2018-06-25T11:16:51.917Z,22.26
2018-06-25T11:17:51.916Z,22.27
2018-06-25T11:18:51.919Z,22.30
2018-06-25T11:19:51.915Z,22.23
2018-06-25T11:20:51.917Z,22.24
2018-06-25T11:21:51.920Z,22.36
2018-06-25T11:22:51.927Z,22.30
2018-06-25T11:23:51.927Z,22.30
2018-06-25T11:24:51.925Z,22.26
2018-06-25T11:25:51.928Z,22.27
2018-06-25T11:26:52.038Z,22.19
2018-06-25T11:27:51.972Z,22.17
2018-06-25T11:28:51.937Z,22.23
2018-06-25T11:29:51.951Z,22.20
2018-06-25T11:30:51.937Z,22.24
2018-06-25T11:31:51.941Z,22.38
2018-06-25T11:32:51.940Z,22.39
2018-06-25T11:33:51.943Z,22.42
2018-06-25T11:34:51.950Z,22.36
2018-06-25T11:35:51.949Z,22.49
2018-06-25T11:36:51.952Z,22.44
2018-06-25T11:37:51.954Z,22.36
2018-06-25T11:38:51.951Z,22.52
2018-06-25T11:39:51.952Z,22.59
2018-06-25T11:40:51.959Z,22.63
2018-06-25T11:41:52.000Z,22.69
2018-06-25T11:42:51.959Z,22.76
2018-06-25T11:43:51.965Z,22.69
2018-06-25T11:44:51.963Z,22.59
2018-06-25T11:45:51.964Z,22.51
2018-06-25T11:46:51.972Z,22.59
2018-06-25T11:47:51.978Z,22.63
2018-06-25T11:48:51.974Z,22.59
2018-06-25T11:49:51.976Z,22.60
2018-06-25T11:50:51.975Z,22.63
2018-06-25T11:51:51.975Z,22.63
2018-06-25T11:52:51.977Z,22.63
2018-06-25T11:53:51.979Z,22.72
2018-06-25T11:54:51.985Z,22.88
2018-06-25T11:55:51.986Z,22.94
2018-06-25T11:56:51.984Z,22.96
2018-06-25T11:57:51.986Z,22.97
2018-06-25T11:58:51.993Z,22.94
2018-06-25T11:59:51.994Z,23.04
2018-06-25T12:00:51.996Z,23.03
2018-06-25T12:01:52.009Z,23.04
2018-06-25T12:02:52.074Z,23.06
2018-06-25T12:03:51.998Z,23.07
2018-06-25T12:04:52.002Z,23.19
2018-06-25T12:05:52.002Z,23.25
2018-06-25T12:06:52.011Z,23.23
2018-06-25T12:07:52.013Z,23.21
2018-06-25T12:08:52.013Z,23.38
2018-06-25T12:09:52.017Z,23.41
2018-06-25T12:10:52.013Z,23.44
2018-06-25T12:11:52.019Z,23.49
2018-06-25T12:12:52.023Z,23.26
2018-06-25T12:13:52.026Z,23.29
2018-06-25T12:14:52.023Z,23.42
2018-06-25T12:15:52.025Z,23.45
2018-06-25T12:16:52.027Z,23.47
2018-06-25T12:17:52.031Z,23.64
2018-06-25T12:18:52.039Z,23.81
2018-06-25T12:19:52.098Z,23.92
2018-06-25T12:20:52.041Z,23.97
2018-06-25T12:21:52.045Z,24.24
2018-06-25T12:22:52.046Z,24.27
2018-06-25T12:23:52.045Z,24.46
2018-06-25T12:24:52.048Z,24.64
2018-06-25T12:25:52.052Z,24.79
2018-06-25T12:26:52.060Z,24.92
2018-06-25T12:27:52.119Z,24.98
2018-06-25T12:28:52.061Z,24.92
2018-06-25T12:29:52.065Z,24.82
2018-06-25T12:30:52.072Z,24.98
2018-06-25T12:31:52.083Z,24.97
2018-06-25T12:32:52.082Z,25.16
2018-06-25T12:33:52.082Z,25.31
2018-06-25T12:34:52.081Z,25.29
2018-06-25T12:35:52.088Z,25.44
2018-06-25T12:36:52.092Z,25.44
2018-06-25T12:37:52.102Z,25.48
2018-06-25T12:38:52.101Z,25.61
2018-06-25T12:39:52.104Z,25.54
2018-06-25T12:40:52.110Z,25.66
2018-06-25T12:41:52.113Z,25.64
2018-06-25T12:42:52.112Z,25.83
2018-06-25T12:43:52.115Z,25.79
2018-06-25T12:44:52.124Z,25.85
2018-06-25T12:45:52.129Z,25.86
2018-06-25T12:46:52.130Z,26.00
2018-06-25T12:47:52.133Z,25.98
2018-06-25T12:48:52.136Z,25.98
2018-06-25T12:49:52.140Z,25.85
2018-06-25T12:50:52.149Z,25.89
2018-06-25T12:51:52.156Z,25.86
2018-06-25T12:52:52.157Z,25.81